Time;durP1;ratioP1;P1;durP2;ratioP2;P2;SDS_P1;SDS_P2;PMS_P1;PMS_P2;Temp;Humidity;BMP_temperature;BMP_pressure;BME280_temperature;BME280_humidity;BME280_pressure;Samples;Min_cycle;Max_cycle;Signal;HPM_P1;HPM_P2
2021/12/15 00:00:17;;;;;;;77.13;31.58;;;9.60;99.90;;;;;;6161176;23;20020;-84
2021/12/15 00:02:44;;;;;;;82.47;32.10;;;9.60;99.90;;;;;;6184370;23;20123;-83
2021/12/15 00:05:13;;;;;;;78.45;30.92;;;10.20;99.90;;;;;;6160303;23;20044;-84
2021/12/15 00:07:39;;;;;;;80.40;31.13;;;9.60;99.90;;;;;;6160878;23;20023;-83
2021/12/15 00:10:06;;;;;;;88.30;31.92;;;10.20;99.90;;;;;;6186183;23;20009;-83
2021/12/15 00:12:32;;;;;;;76.88;31.58;;;9.60;99.90;;;;;;6186945;23;20031;-83
2021/12/15 00:14:57;;;;;;;75.50;29.77;;;10.20;99.90;;;;;;6186120;23;20028;-83
2021/12/15 00:17:23;;;;;;;78.07;29.25;;;10.10;99.90;;;;;;6161579;23;20013;-83
2021/12/15 00:20:27;;;;;;;67.65;29.05;;;9.80;99.90;;;;;;6161988;23;20024;-83
2021/12/15 00:22:53;;;;;;;87.97;31.20;;;9.70;99.90;;;;;;6187053;23;20017;-83
2021/12/15 00:25:26;;;;;;;80.88;31.30;;;9.70;99.90;;;;;;6186955;23;20012;-83
2021/12/15 00:27:52;;;;;;;93.88;31.42;;;9.70;99.90;;;;;;6184562;23;20013;-83
2021/12/15 00:30:19;;;;;;;80.13;30.67;;;9.70;99.90;;;;;;6185308;23;20113;-83
2021/12/15 00:32:45;;;;;;;78.88;30.80;;;9.70;99.90;;;;;;6158642;23;20066;-83
2021/12/15 00:35:12;;;;;;;86.10;30.23;;;9.70;99.90;;;;;;6158618;23;20012;-83
2021/12/15 00:37:37;;;;;;;92.50;30.70;;;10.10;99.90;;;;;;6182384;23;20027;-83
2021/12/15 00:40:07;;;;;;;80.57;30.90;;;9.70;99.90;;;;;;6184666;23;20016;-83
2021/12/15 00:42:33;;;;;;;79.85;30.02;;;9.70;99.90;;;;;;6158797;23;20121;-83
2021/12/15 00:44:59;;;;;;;80.43;29.30;;;9.70;99.90;;;;;;6181938;23;20040;-83
2021/12/15 00:47:24;;;;;;;76.35;30.05;;;9.70;99.90;;;;;;6160507;23;20013;-84
2021/12/15 00:49:51;;;;;;;79.43;29.30;;;10.20;99.90;;;;;;6157868;23;20019;-83
2021/12/15 00:52:18;;;;;;;71.45;29.13;;;9.70;99.90;;;;;;6177361;23;20031;-83
2021/12/15 00:54:44;;;;;;;79.28;30.75;;;10.10;99.90;;;;;;6129587;23;20366;-83
2021/12/15 00:57:10;;;;;;;82.15;28.98;;;9.70;99.90;;;;;;6156456;23;20079;-83
2021/12/15 00:59:36;;;;;;;82.22;29.42;;;9.70;99.90;;;;;;6129097;23;20441;-82
2021/12/15 01:02:03;;;;;;;79.05;30.42;;;9.70;99.90;;;;;;6131698;23;20072;-83
2021/12/15 01:04:31;;;;;;;78.82;29.33;;;9.70;99.90;;;;;;6154979;23;20044;-83
2021/12/15 01:07:02;;;;;;;80.63;29.40;;;10.30;99.90;;;;;;6129957;23;20071;-84
2021/12/15 01:09:39;;;;;;;67.57;28.55;;;10.00;99.90;;;;;;6156367;23;20021;-84
2021/12/15 01:12:26;;;;;;;67.15;27.27;;;9.90;99.90;;;;;;6130402;23;20428;-83
2021/12/15 01:20:27;;;;;;;76.40;30.83;;;9.80;99.90;;;;;;6155310;23;20429;-83
2021/12/15 01:22:55;;;;;;;77.10;28.73;;;10.10;99.90;;;;;;6155190;23;20017;-83
2021/12/15 01:25:26;;;;;;;79.80;29.60;;;9.70;99.90;;;;;;6157013;23;20009;-82
2021/12/15 01:27:52;;;;;;;72.72;29.38;;;10.30;99.90;;;;;;6182940;23;20016;-83
2021/12/15 01:30:24;;;;;;;83.55;30.55;;;9.70;99.90;;;;;;6155583;23;20013;-83
2021/12/15 01:32:50;;;;;;;85.97;30.77;;;9.80;99.90;;;;;;6129751;23;20135;-83
2021/12/15 01:35:17;;;;;;;74.75;32.10;;;9.80;99.90;;;;;;6182062;23;20425;-83
2021/12/15 01:37:43;;;;;;;73.20;30.25;;;9.70;99.90;;;;;;6129124;23;20070;-83
2021/12/15 01:40:19;;;;;;;74.50;30.40;;;9.90;99.90;;;;;;6154897;23;20024;-83
2021/12/15 01:42:45;;;;;;;74.43;31.15;;;9.80;99.90;;;;;;6128378;23;20028;-82
2021/12/15 01:48:09;;;;;;;72.72;29.67;;;10.10;99.90;;;;;;6154842;23;20021;-83
2021/12/15 01:50:36;;;;;;;77.25;32.17;;;9.80;99.90;;;;;;6155465;23;20017;-83
2021/12/15 01:53:03;;;;;;;74.53;31.77;;;9.90;99.90;;;;;;6145039;23;20024;-83
2021/12/15 01:55:29;;;;;;;89.53;33.92;;;9.80;99.90;;;;;;6184412;23;20016;-83
2021/12/15 01:57:54;;;;;;;82.28;33.90;;;9.80;99.90;;;;;;6134864;23;20052;-84
2021/12/15 02:00:28;;;;;;;82.57;33.47;;;10.40;99.90;;;;;;6182564;23;20443;-83
2021/12/15 02:02:56;;;;;;;89.72;33.08;;;9.90;99.90;;;;;;6211505;23;20021;-83
2021/12/15 02:05:24;;;;;;;76.60;32.13;;;9.80;99.90;;;;;;6184875;23;20020;-82
2021/12/15 02:07:50;;;;;;;80.68;31.90;;;9.80;99.90;;;;;;6183114;23;20032;-82
2021/12/15 02:10:18;;;;;;;81.82;33.47;;;9.90;99.90;;;;;;6159296;23;20098;-83
2021/12/15 02:12:44;;;;;;;76.32;31.85;;;9.80;99.90;;;;;;6157187;23;20027;-83
2021/12/15 02:15:20;;;;;;;92.72;34.58;;;9.80;99.90;;;;;;6159990;23;20095;-84
2021/12/15 02:17:46;;;;;;;93.75;34.33;;;9.80;99.90;;;;;;6158766;23;20688;-83
2021/12/15 02:20:15;;;;;;;83.72;34.28;;;9.80;99.90;;;;;;6157162;23;20019;-83
2021/12/15 02:22:42;;;;;;;88.03;35.22;;;9.80;99.90;;;;;;6183933;23;20387;-83
2021/12/15 02:25:11;;;;;;;81.43;33.38;;;9.80;99.90;;;;;;6159259;23;20028;-83
2021/12/15 02:27:38;;;;;;;82.18;34.03;;;9.80;99.90;;;;;;6157506;23;20667;-83
2021/12/15 02:30:23;;;;;;;76.45;34.15;;;9.90;99.90;;;;;;6158226;23;20012;-84
2021/12/15 02:33:08;;;;;;;89.60;34.45;;;9.80;99.90;;;;;;6183567;23;20358;-84
2021/12/15 02:38:29;;;;;;;83.20;33.60;;;9.90;99.90;;;;;;6212293;23;20016;-83
2021/12/15 02:41:06;;;;;;;86.60;35.00;;;9.80;99.90;;;;;;6212441;23;20282;-85
2021/12/15 02:43:37;;;;;;;83.47;33.08;;;9.90;99.90;;;;;;6157475;23;20115;-82
2021/12/15 02:46:04;;;;;;;86.70;35.10;;;9.80;99.90;;;;;;6159647;23;20048;-83
2021/12/15 02:48:30;;;;;;;93.28;34.78;;;9.80;99.90;;;;;;6159961;23;20016;-83
2021/12/15 02:50:57;;;;;;;85.43;36.28;;;9.80;99.90;;;;;;6185297;23;20087;-82
2021/12/15 02:53:23;;;;;;;86.70;35.17;;;10.00;99.90;;;;;;6169720;23;20382;-82
2021/12/15 02:55:49;;;;;;;80.53;34.97;;;9.80;99.90;;;;;;6155247;23;20017;-83
2021/12/15 02:58:18;;;;;;;90.35;34.45;;;9.80;99.90;;;;;;6154893;23;20847;-83
2021/12/15 03:01:01;;;;;;;92.03;35.08;;;10.40;99.90;;;;;;6131584;23;20146;-82
2021/12/15 03:06:07;;;;;;;87.63;35.10;;;9.80;99.90;;;;;;6158260;23;20013;-82
2021/12/15 03:09:22;;;;;;;80.70;33.83;;;9.80;99.90;;;;;;6184019;23;20360;-83
2021/12/15 03:16:58;;;;;;;79.70;32.85;;;9.90;99.90;;;;;;6184345;23;20017;-83
2021/12/15 03:19:42;;;;;;;77.50;33.92;;;9.80;99.90;;;;;;6184627;23;20051;-82
2021/12/15 03:22:08;;;;;;;71.45;32.35;;;10.20;99.90;;;;;;6157663;23;20017;-83
2021/12/15 03:24:33;;;;;;;73.63;33.78;;;9.80;99.90;;;;;;6133118;23;20028;-83
2021/12/15 03:27:05;;;;;;;87.25;36.10;;;9.80;99.90;;;;;;6157958;23;20048;-83
2021/12/15 03:35:18;;;;;;;78.47;35.30;;;10.70;99.90;;;;;;6183758;23;20021;-83
2021/12/15 03:37:48;;;;;;;72.88;33.78;;;9.90;99.90;;;;;;6132828;23;20020;-83
2021/12/15 03:40:20;;;;;;;78.95;35.03;;;9.90;99.90;;;;;;6157089;23;20017;-83
2021/12/15 03:42:58;;;;;;;76.70;33.92;;;9.90;99.90;;;;;;6131534;23;20024;-83
2021/12/15 03:45:31;;;;;;;82.72;36.05;;;9.90;99.90;;;;;;6133203;23;20698;-82
2021/12/15 03:48:00;;;;;;;89.20;37.25;;;9.90;99.90;;;;;;6133048;23;20021;-83
2021/12/15 03:50:27;;;;;;;80.10;35.97;;;9.80;99.90;;;;;;6132337;23;20013;-82
2021/12/15 03:52:53;;;;;;;72.28;35.58;;;9.90;99.90;;;;;;6140984;23;20128;-83
2021/12/15 03:55:23;;;;;;;88.43;36.85;;;9.90;99.90;;;;;;6187089;23;20048;-83
2021/12/15 03:57:50;;;;;;;76.93;35.40;;;10.00;99.90;;;;;;6161110;23;20028;-83
2021/12/15 04:00:17;;;;;;;84.35;37.70;;;9.90;99.90;;;;;;6187255;23;20016;-82
2021/12/15 04:02:44;;;;;;;82.60;35.35;;;9.90;99.90;;;;;;6161381;23;20047;-83
2021/12/15 04:05:11;;;;;;;78.90;34.58;;;10.20;99.90;;;;;;6187944;23;20012;-83
2021/12/15 04:07:37;;;;;;;72.70;35.10;;;9.90;99.90;;;;;;6161838;23;20452;-83
2021/12/15 04:10:11;;;;;;;84.68;35.35;;;9.80;99.90;;;;;;6187530;23;20017;-82
2021/12/15 04:12:37;;;;;;;69.10;32.45;;;9.90;99.90;;;;;;6186952;23;20094;-82
2021/12/15 04:17:50;;;;;;;79.80;33.88;;;9.90;99.90;;;;;;6186888;23;20087;-83
2021/12/15 04:20:19;;;;;;;80.32;35.53;;;9.90;99.90;;;;;;6187325;23;20075;-82
2021/12/15 04:22:45;;;;;;;74.60;33.45;;;10.00;99.90;;;;;;6161661;23;20018;-82
2021/12/15 04:25:15;;;;;;;81.80;34.92;;;10.00;99.90;;;;;;6161786;23;20516;-82
2021/12/15 04:27:51;;;;;;;72.40;31.70;;;9.90;99.90;;;;;;6213266;23;20670;-82
2021/12/15 04:30:17;;;;;;;76.10;32.92;;;10.60;99.90;;;;;;6214882;23;20012;-81
2021/12/15 04:32:45;;;;;;;78.88;32.80;;;9.90;99.90;;;;;;6213164;23;20059;-82
2021/12/15 04:35:12;;;;;;;80.00;33.08;;;9.90;99.90;;;;;;6161868;23;20111;-82
2021/12/15 04:37:41;;;;;;;75.03;32.72;;;10.40;99.90;;;;;;6186014;23;20027;-82
2021/12/15 04:40:09;;;;;;;68.38;29.90;;;9.90;99.90;;;;;;6162782;23;20023;-82
2021/12/15 04:42:37;;;;;;;83.25;33.38;;;9.90;99.90;;;;;;6185929;23;20016;-84
2021/12/15 04:45:04;;;;;;;72.85;32.60;;;10.00;99.90;;;;;;6160805;23;20020;-83
2021/12/15 04:47:30;;;;;;;74.97;32.63;;;9.90;99.90;;;;;;6187136;23;20012;-82
2021/12/15 04:49:57;;;;;;;73.05;32.00;;;10.20;99.90;;;;;;6162121;23;20267;-83
2021/12/15 04:52:28;;;;;;;71.25;32.35;;;9.90;99.90;;;;;;6213783;23;20012;-82
2021/12/15 04:54:54;;;;;;;71.82;32.05;;;10.20;99.90;;;;;;6162453;23;20016;-83
2021/12/15 04:57:21;;;;;;;64.13;30.88;;;9.80;99.90;;;;;;6188421;23;20087;-83
2021/12/15 04:59:47;;;;;;;75.82;32.50;;;9.90;99.90;;;;;;6187444;23;20051;-83
2021/12/15 05:02:16;;;;;;;74.78;31.17;;;9.80;99.90;;;;;;6162046;23;20020;-83
2021/12/15 05:04:43;;;;;;;76.97;32.15;;;9.90;99.90;;;;;;6186692;23;20086;-83
2021/12/15 05:07:09;;;;;;;75.78;30.95;;;9.90;99.90;;;;;;6186091;23;20012;-83
2021/12/15 05:09:35;;;;;;;73.75;32.13;;;9.80;99.90;;;;;;6213265;23;20012;-83
2021/12/15 05:12:01;;;;;;;76.43;31.67;;;10.30;99.90;;;;;;6186829;23;20021;-83
2021/12/15 05:14:27;;;;;;;73.05;31.33;;;9.80;99.90;;;;;;6160290;23;20028;-83
2021/12/15 05:16:54;;;;;;;70.32;32.10;;;9.90;99.90;;;;;;6187167;23;20371;-82
2021/12/15 05:19:21;;;;;;;71.90;32.13;;;10.50;99.90;;;;;;6186182;23;20298;-83
2021/12/15 05:21:50;;;;;;;72.85;33.33;;;9.90;99.90;;;;;;6186105;23;20017;-83
2021/12/15 05:26:55;;;;;;;81.45;35.22;;;10.20;99.90;;;;;;6185163;23;20027;-83
2021/12/15 05:29:21;;;;;;;86.57;34.17;;;9.80;99.90;;;;;;6185319;23;20151;-83
2021/12/15 05:31:47;;;;;;;74.95;33.65;;;9.80;99.90;;;;;;6185731;23;20345;-84
2021/12/15 05:34:16;;;;;;;79.18;34.13;;;9.80;99.90;;;;;;6185860;23;20031;-83
2021/12/15 05:36:45;;;;;;;75.80;33.40;;;9.80;99.90;;;;;;6161559;23;20428;-83
2021/12/15 05:39:23;;;;;;;75.03;34.47;;;9.80;99.90;;;;;;6161004;23;20024;-84
2021/12/15 05:41:53;;;;;;;76.50;33.00;;;9.30;99.90;;;;;;6161060;23;20103;-84
2021/12/15 05:44:21;;;;;;;82.03;33.80;;;9.80;99.90;;;;;;6159279;23;20067;-84
2021/12/15 05:46:47;;;;;;;75.68;34.60;;;9.80;99.90;;;;;;6161441;23;20069;-83
2021/12/15 05:49:29;;;;;;;82.28;34.00;;;10.40;99.90;;;;;;6161005;23;20016;-83
2021/12/15 05:51:55;;;;;;;79.68;33.97;;;9.80;99.90;;;;;;6186476;23;20110;-84
2021/12/15 05:54:21;;;;;;;85.85;32.63;;;10.50;99.90;;;;;;6136856;23;20021;-83
2021/12/15 05:56:47;;;;;;;72.22;30.02;;;9.90;99.90;;;;;;6131675;23;20024;-83
2021/12/15 05:59:13;;;;;;;79.22;33.05;;;9.90;99.90;;;;;;6130213;23;20036;-83
2021/12/15 06:01:40;;;;;;;75.18;32.20;;;9.80;99.90;;;;;;6131713;23;20017;-83
2021/12/15 06:04:07;;;;;;;78.18;31.80;;;9.80;99.90;;;;;;6155366;23;20017;-83
2021/12/15 06:06:36;;;;;;;71.93;33.00;;;9.90;99.90;;;;;;6182675;23;20033;-83
2021/12/15 06:09:04;;;;;;;75.93;33.30;;;10.40;99.90;;;;;;6131267;23;20009;-83
2021/12/15 06:11:39;;;;;;;81.20;33.63;;;9.90;99.90;;;;;;6182220;23;20461;-83
2021/12/15 06:14:11;;;;;;;77.53;32.47;;;9.80;99.90;;;;;;6129959;23;20024;-83
2021/12/15 06:17:02;;;;;;;80.45;32.40;;;9.80;99.90;;;;;;6160035;23;20013;-84
2021/12/15 06:19:28;;;;;;;79.85;33.10;;;10.40;99.90;;;;;;6131488;23;20045;-82
2021/12/15 06:21:54;;;;;;;77.22;31.35;;;9.90;99.90;;;;;;6130061;23;20724;-83
2021/12/15 06:24:19;;;;;;;82.85;33.60;;;10.20;99.90;;;;;;6155131;23;20021;-83
2021/12/15 06:26:45;;;;;;;79.32;33.25;;;10.50;99.90;;;;;;6131622;23;20013;-83
2021/12/15 06:29:14;;;;;;;78.25;33.38;;;9.60;99.90;;;;;;6154965;23;20017;-83
2021/12/15 06:31:42;;;;;;;75.97;33.47;;;9.90;99.90;;;;;;6130582;23;20324;-86
2021/12/15 06:34:09;;;;;;;81.45;33.40;;;10.00;99.90;;;;;;6129907;23;20318;-83
2021/12/15 06:36:35;;;;;;;72.45;32.22;;;9.90;99.90;;;;;;6154599;23;20080;-83
2021/12/15 06:39:05;;;;;;;75.40;33.05;;;9.90;99.90;;;;;;6154368;23;20402;-81
2021/12/15 06:41:30;;;;;;;71.75;32.42;;;9.90;99.90;;;;;;6154200;23;20087;-83
2021/12/15 06:43:58;;;;;;;78.30;33.10;;;9.90;99.90;;;;;;6130000;23;20021;-82
2021/12/15 06:59:46;;;;;;;72.97;30.67;;;9.90;99.90;;;;;;6211107;23;20103;-83
2021/12/15 07:02:11;;;;;;;63.55;28.55;;;10.30;99.90;;;;;;6184269;23;20044;-83
2021/12/15 07:04:37;;;;;;;75.00;29.83;;;10.00;99.90;;;;;;6185629;23;20078;-82
2021/12/15 07:07:04;;;;;;;62.80;28.88;;;10.00;99.90;;;;;;6160565;23;20017;-82
2021/12/15 07:09:31;;;;;;;61.92;28.77;;;10.00;99.90;;;;;;6160134;23;20015;-82
2021/12/15 07:11:57;;;;;;;63.85;29.95;;;10.00;99.90;;;;;;6185496;23;20429;-82
2021/12/15 07:14:28;;;;;;;67.05;30.90;;;9.90;99.90;;;;;;6159407;23;20019;-82
2021/12/15 07:16:55;;;;;;;78.88;30.23;;;10.20;99.90;;;;;;6185350;23;20491;-82
2021/12/15 07:22:09;;;;;;;63.80;27.30;;;10.60;99.90;;;;;;6211392;23;20028;-83
2021/12/15 07:24:36;;;;;;;68.47;27.38;;;10.00;99.90;;;;;;6160449;23;20013;-83
2021/12/15 07:27:03;;;;;;;63.83;27.17;;;10.00;99.90;;;;;;6184829;23;20079;-82
2021/12/15 07:29:30;;;;;;;61.88;25.13;;;10.00;99.90;;;;;;6183359;23;20046;-82
2021/12/15 07:31:57;;;;;;;68.70;26.70;;;10.00;99.90;;;;;;6211517;23;20021;-82
2021/12/15 07:34:26;;;;;;;57.13;24.50;;;10.00;99.90;;;;;;6161045;23;20017;-82
2021/12/15 07:36:53;;;;;;;62.30;27.23;;;10.00;99.90;;;;;;6212070;23;20015;-82
2021/12/15 07:39:19;;;;;;;69.97;27.27;;;10.00;99.90;;;;;;6161103;23;20019;-82
2021/12/15 07:41:51;;;;;;;62.45;26.33;;;10.00;99.90;;;;;;6185240;23;20017;-83
2021/12/15 07:44:29;;;;;;;57.10;24.58;;;10.30;99.90;;;;;;6183620;23;20058;-83
2021/12/15 07:46:58;;;;;;;59.50;25.63;;;9.90;99.90;;;;;;6160297;23;20100;-83
2021/12/15 07:49:28;;;;;;;61.55;26.00;;;10.10;99.90;;;;;;6185421;23;20020;-81
2021/12/15 07:52:04;;;;;;;61.67;25.70;;;10.00;99.90;;;;;;6160180;23;20437;-82
2021/12/15 07:54:34;;;;;;;57.28;24.42;;;10.00;99.90;;;;;;6188440;23;20039;-82
2021/12/15 07:57:03;;;;;;;51.80;24.33;;;10.00;99.90;;;;;;6161289;23;20023;-82
2021/12/15 07:59:32;;;;;;;49.72;22.20;;;9.90;99.90;;;;;;6185705;23;20051;-83
2021/12/15 08:02:06;;;;;;;54.42;22.85;;;10.00;99.90;;;;;;6160171;23;20858;-83
2021/12/15 08:04:32;;;;;;;51.17;22.33;;;9.90;99.90;;;;;;6185181;23;20020;-82
2021/12/15 08:07:01;;;;;;;46.25;21.88;;;10.00;99.90;;;;;;6161160;23;20016;-85
2021/12/15 08:09:33;;;;;;;47.40;22.05;;;10.00;99.90;;;;;;6162280;23;20248;-81
2021/12/15 08:11:59;;;;;;;55.13;20.90;;;10.10;99.90;;;;;;6162298;23;20048;-81
2021/12/15 08:14:26;;;;;;;55.47;20.20;;;10.50;99.90;;;;;;6159760;23;20047;-82
2021/12/15 08:16:52;;;;;;;35.10;17.92;;;10.00;99.90;;;;;;6187451;23;20028;-82
2021/12/15 08:19:19;;;;;;;41.90;17.17;;;10.00;99.90;;;;;;6161045;23;20020;-82
2021/12/15 08:21:46;;;;;;;41.00;16.95;;;10.00;99.90;;;;;;6161736;23;20235;-81
2021/12/15 08:24:12;;;;;;;49.42;19.02;;;10.10;99.90;;;;;;6186359;23;20028;-81
2021/12/15 08:26:38;;;;;;;38.25;16.75;;;10.00;99.90;;;;;;6161412;23;20495;-82
2021/12/15 08:29:04;;;;;;;42.88;17.95;;;10.00;99.90;;;;;;6186670;23;20088;-82
2021/12/15 08:31:30;;;;;;;42.92;16.80;;;9.90;99.90;;;;;;6186984;23;20092;-80
2021/12/15 08:34:22;;;;;;;40.58;17.55;;;9.90;99.90;;;;;;6161942;23;20373;-87
2021/12/15 08:36:50;;;;;;;39.33;17.13;;;9.90;99.90;;;;;;6040146;23;20022;-82
2021/12/15 08:39:16;;;;;;;40.30;17.65;;;9.90;99.90;;;;;;6016428;23;20019;-82
2021/12/15 08:41:42;;;;;;;39.88;18.52;;;10.00;99.90;;;;;;6016203;23;20015;-81
2021/12/15 08:44:10;;;;;;;49.35;18.15;;;10.00;99.90;;;;;;6039624;23;20136;-82
2021/12/15 08:46:43;;;;;;;47.78;18.45;;;9.90;99.90;;;;;;6040268;23;20066;-82
2021/12/15 08:49:13;;;;;;;41.20;17.30;;;10.00;99.90;;;;;;6016795;23;20011;-82
2021/12/15 08:51:39;;;;;;;37.30;19.10;;;10.00;99.90;;;;;;6015669;23;20027;-82
2021/12/15 08:54:09;;;;;;;47.97;17.88;;;10.00;99.90;;;;;;6016544;23;20126;-82
2021/12/15 08:56:36;;;;;;;38.53;17.63;;;10.40;99.90;;;;;;6040856;23;20020;-82
2021/12/15 08:59:04;;;;;;;44.05;17.80;;;9.90;99.90;;;;;;6038799;23;20022;-82
2021/12/15 09:01:30;;;;;;;47.88;17.35;;;10.00;99.90;;;;;;6039931;23;20074;-82
2021/12/15 09:03:57;;;;;;;38.85;16.83;;;10.00;99.90;;;;;;6015458;23;20037;-82
2021/12/15 09:06:23;;;;;;;40.33;17.08;;;10.10;99.90;;;;;;6016356;23;20018;-81
2021/12/15 09:08:49;;;;;;;46.80;16.67;;;10.10;99.90;;;;;;6041369;23;20023;-81
2021/12/15 09:11:20;;;;;;;40.88;16.67;;;10.10;99.90;;;;;;6017477;23;20083;-82
2021/12/15 09:13:50;;;;;;;39.15;16.80;;;10.10;99.90;;;;;;6092465;23;20016;-82
2021/12/15 09:16:16;;;;;;;48.85;18.25;;;10.10;99.90;;;;;;6188208;23;20019;-82
2021/12/15 09:19:03;;;;;;;45.33;16.67;;;10.20;99.90;;;;;;6162808;23;20024;-83
2021/12/15 09:25:25;;;;;;;35.53;15.95;;;10.10;99.90;;;;;;6215465;23;20020;-85
2021/12/15 09:27:51;;;;;;;39.20;15.73;;;10.10;99.90;;;;;;6161607;23;20629;-82
2021/12/15 09:30:20;;;;;;;33.65;16.60;;;10.10;99.90;;;;;;6160557;23;20013;-81
2021/12/15 09:32:49;;;;;;;37.08;17.15;;;10.20;99.90;;;;;;6185836;23;20016;-81
2021/12/15 09:35:17;;;;;;;37.22;16.42;;;10.10;99.90;;;;;;6186237;23;20096;-81
2021/12/15 09:37:44;;;;;;;42.25;16.40;;;10.20;99.90;;;;;;6186609;23;20471;-80
2021/12/15 09:40:12;;;;;;;33.75;15.23;;;10.20;99.90;;;;;;6185775;23;20012;-80
2021/12/15 09:42:39;;;;;;;35.78;15.38;;;10.20;99.90;;;;;;6136994;23;20024;-79
2021/12/15 10:17:54;;;;;;;26.83;11.50;;;10.50;99.90;;;;;;6096255;23;20100;-77
2021/12/15 10:20:24;;;;;;;28.83;11.40;;;10.50;99.90;;;;;;6160125;23;20012;-77
2021/12/15 10:22:57;;;;;;;24.27;11.75;;;10.40;99.90;;;;;;6185794;23;20034;-80
2021/12/15 10:25:26;;;;;;;32.90;12.07;;;10.40;99.90;;;;;;6186047;23;20024;-80
2021/12/15 10:28:03;;;;;;;30.42;12.52;;;10.40;99.90;;;;;;6160283;23;20009;-80
2021/12/15 10:30:38;;;;;;;31.08;12.45;;;10.40;99.90;;;;;;6162801;23;20024;-79
2021/12/15 10:33:16;;;;;;;22.85;12.23;;;10.40;99.90;;;;;;6213663;23;20041;-82
2021/12/15 10:35:43;;;;;;;25.95;12.50;;;10.40;99.90;;;;;;6161318;23;20017;-81
2021/12/15 10:38:17;;;;;;;26.00;12.32;;;10.90;99.90;;;;;;6161728;23;20019;-80
2021/12/15 10:40:56;;;;;;;25.27;12.73;;;10.40;99.90;;;;;;6213229;23;20012;-78
2021/12/15 10:43:28;;;;;;;24.80;12.65;;;10.40;99.90;;;;;;6159837;23;20021;-79
2021/12/15 10:45:58;;;;;;;29.48;12.75;;;10.50;99.90;;;;;;6161659;23;20075;-80
2021/12/15 10:48:37;;;;;;;25.88;12.77;;;10.50;99.90;;;;;;6160748;23;20021;-79
2021/12/15 10:51:25;;;;;;;22.50;12.05;;;10.50;99.90;;;;;;6161598;23;20111;-80
2021/12/15 10:53:52;;;;;;;27.45;12.52;;;10.50;99.90;;;;;;6175102;23;20017;-79
2021/12/15 10:56:29;;;;;;;26.67;12.50;;;10.50;99.90;;;;;;6156531;23;20040;-82
2021/12/15 10:59:02;;;;;;;25.38;12.57;;;10.50;99.90;;;;;;6130851;23;20310;-82
2021/12/15 11:01:41;;;;;;;29.90;11.98;;;10.60;99.90;;;;;;6131927;23;20048;-82
2021/12/15 11:04:27;;;;;;;24.50;11.70;;;10.50;99.90;;;;;;6182566;23;20017;-83
2021/12/15 11:07:04;;;;;;;24.00;11.70;;;10.60;99.90;;;;;;6131706;23;20359;-83
2021/12/15 11:09:42;;;;;;;21.17;11.32;;;11.10;99.90;;;;;;6155772;23;20041;-82
2021/12/15 11:12:45;;;;;;;23.05;11.77;;;10.60;99.90;;;;;;6155185;23;20025;-83
2021/12/15 11:15:27;;;;;;;27.30;11.60;;;10.50;99.90;;;;;;6182090;23;20044;-81
2021/12/15 11:18:10;;;;;;;22.52;11.25;;;10.70;99.90;;;;;;6130472;23;20071;-79
2021/12/15 11:20:41;;;;;;;29.08;11.80;;;10.70;99.90;;;;;;6153568;23;20013;-82
2021/12/15 11:23:13;;;;;;;22.73;11.10;;;10.70;99.90;;;;;;6158459;23;20017;-82
2021/12/15 11:25:42;;;;;;;23.88;11.05;;;10.70;99.90;;;;;;6133899;23;20089;-80
2021/12/15 11:28:16;;;;;;;24.10;11.00;;;10.70;99.90;;;;;;6155998;23;20413;-81
2021/12/15 11:31:06;;;;;;;20.42;10.05;;;10.70;99.90;;;;;;6132031;23;20017;-80
2021/12/15 11:33:45;;;;;;;24.42;10.23;;;10.70;99.90;;;;;;6132191;23;20119;-81
2021/12/15 11:36:31;;;;;;;20.42;10.18;;;10.80;99.90;;;;;;6181903;23;20051;-80
2021/12/15 11:38:58;;;;;;;23.55;9.57;;;10.80;99.90;;;;;;6156685;23;20041;-81
2021/12/15 11:41:32;;;;;;;18.38;9.27;;;10.80;99.90;;;;;;6131788;23;20393;-82
2021/12/15 11:44:14;;;;;;;17.00;7.38;;;10.90;99.90;;;;;;6131406;23;20024;-83
2021/12/15 11:46:45;;;;;;;19.23;8.02;;;10.90;99.90;;;;;;6133896;23;20017;-84
2021/12/15 11:49:35;;;;;;;16.25;7.22;;;10.90;99.90;;;;;;6185600;23;20112;-83
2021/12/15 11:52:03;;;;;;;13.25;6.60;;;11.00;99.90;;;;;;6158707;23;20020;-82
2021/12/15 11:54:45;;;;;;;17.95;6.07;;;10.90;99.90;;;;;;6180314;23;20078;-82
2021/12/15 11:57:23;;;;;;;11.27;4.93;;;11.00;99.90;;;;;;6188012;23;20016;-82
2021/12/15 11:59:54;;;;;;;15.45;4.95;;;11.00;99.90;;;;;;6186443;23;20016;-82
2021/12/15 12:02:24;;;;;;;13.95;4.45;;;11.00;99.90;;;;;;6163932;23;20325;-83
2021/12/15 12:04:59;;;;;;;11.35;3.92;;;11.00;99.90;;;;;;6162272;23;20043;-83
2021/12/15 12:07:33;;;;;;;10.50;4.25;;;11.00;99.90;;;;;;6215206;23;20008;-83
2021/12/15 12:10:32;;;;;;;8.88;3.78;;;11.20;99.90;;;;;;6160230;23;20008;-83
2021/12/15 12:13:08;;;;;;;13.85;4.32;;;10.90;99.90;;;;;;6039723;23;20109;-82
2021/12/15 12:15:39;;;;;;;11.95;3.90;;;10.90;99.90;;;;;;6015130;23;20495;-83
2021/12/15 12:18:20;;;;;;;11.38;3.53;;;11.00;99.90;;;;;;6040541;23;20443;-84
2021/12/15 12:21:01;;;;;;;10.18;4.15;;;11.00;99.90;;;;;;6040837;23;20023;-84
2021/12/15 12:23:31;;;;;;;11.60;4.00;;;10.50;99.90;;;;;;6040204;23;20019;-83
2021/12/15 12:26:03;;;;;;;15.10;4.20;;;10.90;99.90;;;;;;6039272;23;20070;-78
2021/12/15 12:28:35;;;;;;;12.77;3.70;;;10.90;99.90;;;;;;6013941;23;20066;-77
2021/12/15 12:31:06;;;;;;;14.98;3.60;;;10.90;99.90;;;;;;6014365;23;20021;-78
2021/12/15 12:33:33;;;;;;;12.38;3.30;;;10.90;99.90;;;;;;6014200;23;20081;-78
2021/12/15 12:36:06;;;;;;;10.57;3.63;;;10.80;99.90;;;;;;6038359;23;20025;-77
2021/12/15 12:38:35;;;;;;;17.52;4.00;;;10.70;99.90;;;;;;6038386;23;20022;-77
2021/12/15 12:41:14;;;;;;;9.43;3.38;;;10.60;99.90;;;;;;6038420;23;20018;-81
2021/12/15 12:43:43;;;;;;;15.80;3.83;;;10.50;99.90;;;;;;6035903;23;20018;-78
2021/12/15 12:46:25;;;;;;;16.55;4.20;;;10.60;99.90;;;;;;6061477;23;20046;-78
2021/12/15 12:49:19;;;;;;;10.60;3.67;;;10.50;99.90;;;;;;6044430;23;20082;-77
2021/12/15 13:00:22;;;;;;;10.93;3.95;;;10.50;99.90;;;;;;6184567;23;20045;-78
2021/12/15 13:02:51;;;;;;;7.68;3.28;;;10.50;99.90;;;;;;6156523;23;20029;-79
2021/12/15 13:06:12;;;;;;;8.38;3.05;;;10.60;99.90;;;;;;6132373;23;20017;-81
2021/12/15 13:08:54;;;;;;;9.45;2.58;;;10.50;99.90;;;;;;6010194;23;20015;-82
2021/12/15 13:11:20;;;;;;;7.97;2.50;;;10.60;99.90;;;;;;6034261;23;20020;-80
2021/12/15 13:14:12;;;;;;;10.32;3.30;;;10.60;99.90;;;;;;5985742;23;20015;-80
2021/12/15 13:16:51;;;;;;;10.18;2.90;;;10.60;99.90;;;;;;5987527;23;20449;-77
2021/12/15 13:19:41;;;;;;;7.65;2.35;;;10.60;99.90;;;;;;6010450;23;20019;-77
2021/12/15 13:22:21;;;;;;;9.63;2.55;;;10.60;99.90;;;;;;6010723;23;20059;-78
2021/12/15 13:30:27;;;;;;;9.88;2.53;;;10.30;99.90;;;;;;6010896;23;20023;-78
2021/12/15 13:33:01;;;;;;;5.60;2.42;;;10.20;99.90;;;;;;6010629;23;20055;-79
2021/12/15 13:35:44;;;;;;;10.93;2.28;;;10.20;99.90;;;;;;6008455;23;20027;-80
2021/12/15 13:38:12;;;;;;;8.23;2.10;;;10.10;99.90;;;;;;6010169;23;20030;-82
2021/12/15 13:40:56;;;;;;;7.30;1.92;;;10.20;99.90;;;;;;6183577;23;20074;-81
2021/12/15 13:43:33;;;;;;;6.17;2.13;;;10.10;99.90;;;;;;6130053;23;20048;-79
2021/12/15 13:46:04;;;;;;;5.78;1.80;;;10.30;99.90;;;;;;6130472;23;20499;-83
2021/12/15 13:49:10;;;;;;;7.68;1.80;;;9.70;99.90;;;;;;6155836;23;20009;-84
2021/12/15 13:51:57;;;;;;;6.32;1.67;;;9.90;99.90;;;;;;6162027;23;20017;-77
2021/12/15 13:54:45;;;;;;;5.85;1.95;;;9.80;99.90;;;;;;6176302;23;20025;-77
2021/12/15 13:57:11;;;;;;;6.60;2.10;;;9.80;99.90;;;;;;6062101;23;20105;-77
2021/12/15 14:00:05;;;;;;;5.43;1.90;;;9.80;99.90;;;;;;6038117;23;20251;-77
2021/12/15 14:02:40;;;;;;;6.88;1.70;;;9.70;99.90;;;;;;6039652;23;20018;-78
2021/12/15 14:05:08;;;;;;;7.38;1.67;;;9.70;99.90;;;;;;6039975;23;20305;-79
2021/12/15 14:07:46;;;;;;;8.38;1.92;;;9.60;99.90;;;;;;6039688;23;20046;-79
2021/12/15 14:10:12;;;;;;;7.18;1.75;;;9.60;99.90;;;;;;6039080;23;20060;-80
2021/12/15 14:12:47;;;;;;;10.80;1.90;;;9.50;99.90;;;;;;6015342;23;20034;-79
2021/12/15 14:15:24;;;;;;;3.72;1.70;;;9.40;99.90;;;;;;6063591;23;20019;-81
2021/12/15 14:17:58;;;;;;;6.75;1.90;;;9.50;99.90;;;;;;6062945;23;20118;-80
2021/12/15 14:20:26;;;;;;;6.10;1.90;;;9.30;99.90;;;;;;6063342;23;20079;-80
2021/12/15 14:23:00;;;;;;;7.43;1.70;;;9.20;99.90;;;;;;6062343;23;20345;-82
2021/12/15 14:25:26;;;;;;;8.25;1.95;;;9.10;99.90;;;;;;6038538;23;20018;-78
2021/12/15 14:27:52;;;;;;;6.20;1.90;;;9.30;99.90;;;;;;6036488;23;20538;-79
2021/12/15 14:30:21;;;;;;;8.93;2.00;;;9.40;99.90;;;;;;6059852;23;20018;-83
2021/12/15 14:32:47;;;;;;;11.02;1.80;;;9.10;99.90;;;;;;6038349;23;20379;-81